Time;durP1;ratioP1;P1;durP2;ratioP2;P2;SDS_P1;SDS_P2;PMS_P1;PMS_P2;Temp;Humidity;BMP_temperature;BMP_pressure;BME280_temperature;BME280_humidity;BME280_pressure;Samples;Min_cycle;Max_cycle;Signal;HPM_P1;HPM_P2
2021/05/25 00:02:49;;;;;;;1.88;1.20;;;10.30;96.20;;;;;;6271366;28;20123;-76
2021/05/25 00:05:50;;;;;;;2.35;0.90;;;10.30;95.50;;;;;;6248140;28;20155;-76
2021/05/25 00:08:51;;;;;;;3.20;1.08;;;10.30;94.90;;;;;;6247558;28;20422;-76
2021/05/25 00:11:53;;;;;;;1.50;0.75;;;10.30;94.60;;;;;;6248262;28;20183;-76
2021/05/25 00:14:54;;;;;;;1.48;0.80;;;10.30;94.30;;;;;;6247492;28;20060;-76
2021/05/25 00:17:57;;;;;;;0.90;0.80;;;10.20;94.30;;;;;;6247710;28;20079;-76
2021/05/25 00:20:58;;;;;;;1.98;1.00;;;10.10;94.40;;;;;;6247287;28;20128;-76
2021/05/25 00:23:59;;;;;;;3.15;0.77;;;10.10;94.50;;;;;;6247213;28;20049;-76
2021/05/25 00:27:01;;;;;;;0.80;0.80;;;10.00;94.70;;;;;;6248044;28;20142;-76
2021/05/25 00:30:03;;;;;;;3.42;1.20;;;9.90;94.80;;;;;;6247368;28;20490;-76
2021/05/25 00:33:06;;;;;;;4.10;2.20;;;9.80;94.70;;;;;;6247344;28;20440;-76
2021/05/25 00:36:11;;;;;;;2.97;1.05;;;9.80;94.50;;;;;;6247182;28;20076;-76
2021/05/25 00:39:12;;;;;;;1.58;0.80;;;9.80;94.50;;;;;;6247313;28;20064;-76
2021/05/25 00:42:13;;;;;;;3.15;1.10;;;9.70;94.50;;;;;;6247271;28;20128;-76
2021/05/25 00:45:16;;;;;;;1.08;0.60;;;9.70;94.70;;;;;;6246691;28;20053;-76
2021/05/25 00:48:18;;;;;;;1.63;1.27;;;9.60;94.70;;;;;;6253555;28;20110;-76
2021/05/25 00:51:20;;;;;;;2.88;0.93;;;9.60;94.70;;;;;;6257819;28;20045;-76
2021/05/25 00:54:21;;;;;;;3.17;0.80;;;9.60;94.70;;;;;;6247087;28;20046;-76
2021/05/25 00:57:22;;;;;;;1.40;1.25;;;9.50;94.80;;;;;;6247291;28;20148;-76
2021/05/25 01:00:28;;;;;;;4.10;1.02;;;9.50;94.80;;;;;;6246910;28;20462;-77
2021/05/25 01:03:30;;;;;;;1.65;1.10;;;9.50;94.80;;;;;;6247499;28;20064;-76
2021/05/25 01:06:31;;;;;;;3.97;1.30;;;9.50;94.90;;;;;;6247367;28;20503;-77
2021/05/25 01:09:33;;;;;;;3.03;1.45;;;9.50;95.20;;;;;;6246665;28;20570;-76
2021/05/25 01:12:39;;;;;;;1.52;0.77;;;9.50;95.50;;;;;;6247141;28;20053;-76
2021/05/25 01:15:41;;;;;;;3.72;1.42;;;9.40;95.80;;;;;;6246982;28;20557;-76
2021/05/25 01:18:44;;;;;;;1.55;1.00;;;9.50;96.00;;;;;;6246619;28;20057;-76
2021/05/25 01:21:48;;;;;;;2.47;1.10;;;9.50;96.20;;;;;;6246913;28;20041;-76
2021/05/25 01:24:49;;;;;;;1.25;0.90;;;9.50;96.20;;;;;;6247024;28;20046;-76
2021/05/25 01:27:53;;;;;;;2.30;1.20;;;9.60;96.40;;;;;;6247102;28;20562;-76
2021/05/25 01:30:55;;;;;;;3.67;0.90;;;9.60;96.50;;;;;;6246112;28;20048;-76
2021/05/25 01:33:57;;;;;;;4.05;1.30;;;9.60;96.50;;;;;;6246442;28;20199;-76
2021/05/25 01:36:59;;;;;;;1.48;1.10;;;9.60;96.50;;;;;;6246741;28;20128;-76
2021/05/25 01:40:00;;;;;;;4.80;1.75;;;9.60;96.50;;;;;;6246654;28;20137;-76
2021/05/25 01:43:03;;;;;;;8.95;1.52;;;9.70;96.30;;;;;;6247546;28;20136;-76
2021/05/25 01:46:05;;;;;;;2.88;0.93;;;9.80;96.10;;;;;;6246540;28;20128;-77
2021/05/25 01:49:06;;;;;;;3.67;0.70;;;9.80;95.90;;;;;;6246441;28;20130;-76
2021/05/25 01:52:08;;;;;;;5.32;1.83;;;9.90;95.50;;;;;;6249598;28;20503;-76
2021/05/25 01:55:10;;;;;;;2.42;0.98;;;9.90;95.20;;;;;;6251632;28;20050;-76
2021/05/25 01:58:15;;;;;;;4.03;1.30;;;9.90;94.90;;;;;;6250936;28;20149;-76
2021/05/25 02:01:17;;;;;;;2.20;0.85;;;9.90;94.70;;;;;;6250756;28;20109;-76
2021/05/25 02:04:18;;;;;;;4.10;1.33;;;9.90;94.50;;;;;;6250962;28;20141;-76
2021/05/25 02:07:20;;;;;;;9.27;1.98;;;9.90;94.00;;;;;;6251350;28;20089;-76
2021/05/25 02:10:27;;;;;;;0.70;0.70;;;10.00;93.50;;;;;;6250616;28;20052;-76
2021/05/25 02:13:31;;;;;;;1.90;0.80;;;10.10;92.90;;;;;;6250492;28;20486;-76
2021/05/25 02:16:33;;;;;;;3.35;0.75;;;10.20;92.10;;;;;;6250364;28;20128;-75
2021/05/25 02:19:34;;;;;;;8.15;1.77;;;10.30;91.70;;;;;;6251005;28;20053;-76
2021/05/25 02:22:36;;;;;;;2.20;0.73;;;10.30;91.80;;;;;;6250287;28;20041;-76
2021/05/25 02:25:38;;;;;;;1.33;1.05;;;10.30;91.50;;;;;;6250192;28;20038;-76
2021/05/25 02:28:40;;;;;;;1.15;0.70;;;10.30;91.60;;;;;;6249798;28;20132;-76
2021/05/25 02:31:42;;;;;;;4.80;1.05;;;10.20;91.60;;;;;;6250394;28;20491;-76
2021/05/25 02:34:43;;;;;;;1.30;1.00;;;10.20;91.60;;;;;;6250155;28;20049;-76
2021/05/25 02:37:45;;;;;;;2.50;1.23;;;10.20;91.50;;;;;;6250142;28;20454;-76
2021/05/25 02:40:49;;;;;;;4.38;1.02;;;10.30;91.00;;;;;;6249615;28;20561;-76
2021/05/25 02:43:50;;;;;;;1.20;0.63;;;10.30;90.80;;;;;;6250038;28;20141;-76
2021/05/25 02:46:52;;;;;;;1.05;0.70;;;10.40;90.50;;;;;;6249739;28;20135;-76
2021/05/25 02:49:53;;;;;;;1.48;1.15;;;10.40;90.20;;;;;;6249341;28;20073;-76
2021/05/25 02:52:56;;;;;;;1.38;0.90;;;10.50;90.10;;;;;;6249590;28;20171;-76
2021/05/25 02:55:57;;;;;;;1.30;0.80;;;10.50;89.10;;;;;;6250042;28;20077;-76
2021/05/25 02:58:58;;;;;;;2.35;0.90;;;10.50;88.30;;;;;;6249804;28;20049;-76
2021/05/25 03:02:00;;;;;;;2.85;0.95;;;10.60;87.90;;;;;;6249172;28;20140;-76
2021/05/25 03:05:01;;;;;;;2.15;1.10;;;10.60;88.10;;;;;;6249026;28;20041;-76
2021/05/25 03:08:06;;;;;;;1.90;1.08;;;10.60;88.50;;;;;;6249294;28;20062;-75
2021/05/25 03:11:07;;;;;;;3.72;1.10;;;10.60;88.30;;;;;;6249275;28;20049;-75
2021/05/25 03:14:08;;;;;;;7.75;1.45;;;10.60;88.20;;;;;;6249135;28;20525;-76
2021/05/25 03:17:10;;;;;;;0.95;0.70;;;10.60;88.40;;;;;;6249037;28;20521;-76
2021/05/25 03:20:13;;;;;;;1.50;0.90;;;10.60;88.40;;;;;;6249247;28;20141;-76
2021/05/25 03:23:17;;;;;;;2.72;1.05;;;10.60;88.30;;;;;;6249565;28;20111;-76
2021/05/25 03:26:18;;;;;;;2.85;0.82;;;10.50;88.00;;;;;;6248974;28;20065;-76
2021/05/25 03:29:20;;;;;;;1.08;0.98;;;10.50;87.40;;;;;;6248570;28;20076;-76
2021/05/25 03:32:21;;;;;;;5.25;0.68;;;10.60;86.90;;;;;;6249407;28;20662;-76
2021/05/25 03:35:24;;;;;;;2.45;0.90;;;10.60;86.60;;;;;;6249233;28;20099;-76
2021/05/25 03:38:26;;;;;;;3.03;1.15;;;10.60;85.90;;;;;;6248935;28;20056;-76
2021/05/25 03:41:28;;;;;;;1.83;0.82;;;10.60;85.40;;;;;;6249738;28;20049;-76
2021/05/25 03:44:29;;;;;;;2.67;1.33;;;10.60;85.20;;;;;;6255718;28;20470;-75
2021/05/25 03:47:30;;;;;;;2.13;0.90;;;10.60;84.80;;;;;;6268387;28;20093;-75
2021/05/25 03:50:32;;;;;;;2.08;0.85;;;10.60;84.60;;;;;;6280305;28;20063;-77
2021/05/25 03:53:34;;;;;;;1.17;0.93;;;10.60;84.80;;;;;;6279801;28;20036;-76
2021/05/25 03:56:47;;;;;;;1.55;0.68;;;10.60;84.80;;;;;;6279838;28;20041;-75
2021/05/25 03:59:49;;;;;;;3.13;1.27;;;10.60;84.80;;;;;;6279964;28;20033;-76
2021/05/25 04:02:50;;;;;;;0.93;0.82;;;10.60;84.70;;;;;;6279763;28;20044;-75
2021/05/25 04:05:52;;;;;;;1.95;1.15;;;10.50;84.70;;;;;;6279434;28;20793;-76
2021/05/25 04:08:54;;;;;;;2.63;1.13;;;10.60;84.90;;;;;;6278410;28;20053;-76
2021/05/25 04:11:55;;;;;;;0.68;0.57;;;10.50;84.70;;;;;;6279210;28;20040;-76
2021/05/25 04:14:57;;;;;;;0.60;0.60;;;10.50;84.60;;;;;;6262498;28;20050;-76
2021/05/25 04:17:58;;;;;;;3.40;0.90;;;10.60;84.30;;;;;;6249408;28;20049;-77
2021/05/25 04:20:59;;;;;;;1.23;0.60;;;10.50;83.80;;;;;;6267468;28;20056;-76
2021/05/25 04:24:02;;;;;;;1.10;0.60;;;10.60;84.00;;;;;;6273345;28;20494;-76
2021/05/25 04:27:03;;;;;;;1.25;0.70;;;10.50;83.70;;;;;;6274958;28;20072;-76
2021/05/25 04:30:07;;;;;;;0.88;0.70;;;10.50;83.50;;;;;;6274804;28;20076;-76
2021/05/25 04:33:08;;;;;;;3.05;1.20;;;10.50;83.70;;;;;;6274574;28;20537;-76
2021/05/25 04:36:10;;;;;;;1.77;1.00;;;10.50;84.20;;;;;;6274425;28;20091;-76
2021/05/25 04:39:12;;;;;;;1.15;0.77;;;10.50;84.80;;;;;;6274512;28;20669;-77
2021/05/25 04:42:13;;;;;;;5.30;0.70;;;10.50;85.00;;;;;;6274084;28;20566;-76
2021/05/25 04:45:15;;;;;;;4.95;1.05;;;10.40;84.80;;;;;;6276043;28;20562;-76
2021/05/25 04:48:17;;;;;;;2.30;0.80;;;10.50;84.40;;;;;;6274852;28;20076;-76
2021/05/25 04:51:18;;;;;;;3.72;0.47;;;10.50;84.10;;;;;;6273148;28;20088;-77
2021/05/25 04:54:21;;;;;;;0.98;0.68;;;10.50;83.60;;;;;;6272058;28;20139;-76
2021/05/25 04:57:23;;;;;;;1.08;0.70;;;10.60;83.20;;;;;;6272048;28;20123;-76
2021/05/25 05:00:27;;;;;;;1.15;0.70;;;10.60;82.90;;;;;;6271947;28;20064;-76
2021/05/25 05:03:28;;;;;;;1.73;0.70;;;10.60;82.50;;;;;;6272068;28;20463;-76
2021/05/25 05:06:30;;;;;;;1.83;0.80;;;10.60;81.80;;;;;;6271635;28;20128;-76
2021/05/25 05:09:32;;;;;;;0.50;0.50;;;10.60;82.00;;;;;;6271420;28;20434;-76
2021/05/25 05:12:33;;;;;;;5.07;0.75;;;10.70;81.60;;;;;;6273502;28;20045;-77
2021/05/25 05:15:35;;;;;;;1.20;0.90;;;10.90;81.00;;;;;;6274761;28;20044;-76
2021/05/25 05:18:36;;;;;;;1.75;0.80;;;10.90;80.30;;;;;;6273202;28;20051;-76
2021/05/25 05:21:37;;;;;;;0.50;0.50;;;10.90;80.20;;;;;;6273681;28;20395;-77
2021/05/25 05:24:40;;;;;;;2.15;0.63;;;11.00;79.20;;;;;;6271536;28;20068;-77
2021/05/25 05:27:41;;;;;;;5.15;0.88;;;11.10;78.80;;;;;;6275767;28;20096;-75
2021/05/25 05:30:43;;;;;;;1.42;0.90;;;11.20;78.20;;;;;;6275575;28;20049;-76
2021/05/25 05:33:44;;;;;;;4.88;1.27;;;11.40;76.60;;;;;;6275800;28;20060;-76
2021/05/25 05:36:45;;;;;;;2.55;0.88;;;11.60;75.20;;;;;;6275862;28;20041;-76
2021/05/25 05:39:48;;;;;;;0.73;0.55;;;11.60;74.80;;;;;;6276058;28;20112;-76
2021/05/25 05:42:49;;;;;;;2.03;1.75;;;11.70;74.20;;;;;;6275643;28;20609;-76
2021/05/25 05:45:50;;;;;;;1.23;0.70;;;11.60;74.20;;;;;;6275595;28;20047;-76
2021/05/25 05:48:52;;;;;;;0.70;0.70;;;11.60;73.70;;;;;;6275219;28;20045;-77
2021/05/25 05:51:54;;;;;;;2.20;1.00;;;11.60;73.50;;;;;;6275859;28;20565;-77
2021/05/25 05:54:56;;;;;;;1.58;0.90;;;11.60;73.40;;;;;;6275264;28;20075;-77
2021/05/25 05:57:58;;;;;;;0.52;0.40;;;11.70;72.90;;;;;;6275254;28;20620;-76
2021/05/25 06:00:59;;;;;;;3.33;3.10;;;11.90;71.90;;;;;;6275505;28;20056;-77
2021/05/25 06:04:01;;;;;;;1.95;0.70;;;11.90;71.60;;;;;;6266346;28;20071;-77
2021/05/25 06:07:02;;;;;;;1.05;0.80;;;11.90;71.90;;;;;;6264921;28;20132;-77
2021/05/25 06:10:06;;;;;;;1.08;0.70;;;12.10;75.80;;;;;;6274993;28;20508;-77
2021/05/25 06:13:07;;;;;;;2.65;1.40;;;12.60;69.00;;;;;;6271809;28;20052;-77
2021/05/25 06:16:08;;;;;;;3.05;0.90;;;12.70;68.10;;;;;;6250847;28;20100;-77
2021/05/25 06:19:10;;;;;;;2.85;0.65;;;12.60;69.30;;;;;;6250346;28;20140;-77
2021/05/25 06:22:11;;;;;;;6.28;1.30;;;12.50;72.70;;;;;;6249818;28;20069;-77
2021/05/25 06:25:16;;;;;;;3.17;0.70;;;12.00;72.50;;;;;;6249886;28;20041;-77
2021/05/25 06:28:18;;;;;;;2.55;0.70;;;11.80;74.70;;;;;;6250086;28;20050;-77
2021/05/25 06:31:19;;;;;;;4.35;3.22;;;11.70;75.90;;;;;;6250464;28;20069;-75
2021/05/25 06:34:20;;;;;;;2.00;0.90;;;11.70;76.70;;;;;;6250035;28;20083;-77
2021/05/25 06:37:21;;;;;;;1.23;0.77;;;11.70;76.50;;;;;;6248903;28;20475;-77
2021/05/25 06:40:24;;;;;;;1.65;0.75;;;11.60;78.00;;;;;;6267189;28;20119;-76
2021/05/25 06:43:25;;;;;;;3.03;0.95;;;11.50;79.90;;;;;;6274648;28;20430;-77
2021/05/25 06:46:26;;;;;;;8.52;0.77;;;11.90;83.60;;;;;;6274520;28;20041;-76
2021/05/25 06:49:28;;;;;;;6.32;2.03;;;11.80;82.70;;;;;;6273814;28;20199;-77
2021/05/25 06:52:29;;;;;;;2.65;0.85;;;11.40;80.70;;;;;;6274899;28;20067;-76
2021/05/25 06:55:32;;;;;;;1.58;0.90;;;11.30;82.20;;;;;;6274460;28;20045;-77
2021/05/25 06:58:33;;;;;;;1.83;1.02;;;11.30;83.60;;;;;;6273627;28;20064;-77
2021/05/25 07:01:35;;;;;;;2.53;1.20;;;11.20;85.30;;;;;;6273634;28;20116;-77
2021/05/25 07:04:36;;;;;;;4.35;1.00;;;11.10;87.20;;;;;;6274138;28;20122;-77
2021/05/25 07:07:37;;;;;;;7.35;1.25;;;10.90;88.70;;;;;;6274045;28;20122;-76
2021/05/25 07:10:39;;;;;;;2.05;1.95;;;10.80;90.10;;;;;;6273563;28;20053;-76
2021/05/25 07:13:41;;;;;;;3.17;1.40;;;10.60;90.70;;;;;;6262517;28;20522;-77
2021/05/25 07:16:42;;;;;;;3.17;1.10;;;10.40;91.20;;;;;;6248381;28;20096;-77
2021/05/25 07:19:44;;;;;;;3.88;1.30;;;10.40;91.90;;;;;;6248655;28;20080;-77
2021/05/25 07:22:51;;;;;;;1.25;1.15;;;10.30;92.60;;;;;;6248402;28;20050;-77
2021/05/25 07:25:53;;;;;;;4.30;2.10;;;10.30;92.90;;;;;;6248479;28;20041;-77
2021/05/25 07:28:54;;;;;;;3.33;1.40;;;10.20;93.20;;;;;;6248216;28;20064;-76
2021/05/25 07:31:55;;;;;;;4.57;1.27;;;10.20;93.40;;;;;;6249055;28;20184;-76
2021/05/25 07:34:57;;;;;;;5.90;1.20;;;10.20;93.80;;;;;;6248258;28;20130;-77
2021/05/25 07:37:58;;;;;;;1.98;1.60;;;10.20;94.40;;;;;;6247895;28;20119;-77
2021/05/25 07:41:00;;;;;;;3.38;1.25;;;10.20;94.40;;;;;;6247930;28;20042;-77
2021/05/25 07:44:02;;;;;;;3.47;1.65;;;10.20;94.60;;;;;;6247998;28;20081;-77
2021/05/25 07:47:03;;;;;;;2.45;1.73;;;10.40;95.10;;;;;;6248885;28;20067;-76
2021/05/25 07:50:13;;;;;;;3.67;1.20;;;10.70;94.90;;;;;;6247553;28;20531;-76
2021/05/25 07:53:14;;;;;;;2.22;1.40;;;11.00;93.90;;;;;;6248311;28;20056;-77
2021/05/25 07:56:16;;;;;;;5.90;1.50;;;11.10;93.80;;;;;;6247903;28;20468;-77
2021/05/25 07:59:17;;;;;;;1.25;1.13;;;11.10;93.60;;;;;;6248214;28;20106;-77
2021/05/25 08:02:19;;;;;;;4.53;1.33;;;11.10;94.10;;;;;;6248239;28;20068;-76
2021/05/25 08:05:22;;;;;;;2.63;1.15;;;11.10;94.00;;;;;;6247992;28;20053;-76
2021/05/25 08:08:23;;;;;;;4.88;1.48;;;10.90;94.50;;;;;;6247857;28;20095;-76
2021/05/25 08:11:25;;;;;;;3.92;1.63;;;10.70;94.90;;;;;;6247923;28;20146;-76
2021/05/25 08:14:26;;;;;;;5.20;1.70;;;10.70;95.20;;;;;;6264588;28;20045;-76
2021/05/25 08:17:45;;;;;;;10.43;3.05;;;10.60;95.90;;;;;;6272401;28;20064;-76
2021/05/25 08:20:47;;;;;;;5.47;1.98;;;10.60;96.10;;;;;;6272004;28;20132;-76
2021/05/25 08:23:48;;;;;;;3.28;1.95;;;10.50;96.30;;;;;;6272530;28;20139;-77
2021/05/25 08:26:50;;;;;;;5.88;1.88;;;10.50;96.90;;;;;;6271547;28;20616;-77
2021/05/25 08:29:51;;;;;;;4.03;1.98;;;10.40;97.00;;;;;;6271375;28;20135;-77
2021/05/25 08:32:55;;;;;;;4.95;1.90;;;10.40;98.00;;;;;;6271681;28;20128;-77
2021/05/25 08:35:56;;;;;;;3.80;1.40;;;10.40;97.70;;;;;;6272167;28;20134;-78
2021/05/25 08:38:57;;;;;;;2.35;1.63;;;10.40;98.00;;;;;;6272226;28;20515;-75
2021/05/25 08:41:59;;;;;;;5.32;1.55;;;10.40;98.20;;;;;;6271764;28;20079;-76
2021/05/25 08:45:04;;;;;;;2.42;1.48;;;10.50;98.60;;;;;;6271802;28;20187;-76
2021/05/25 08:48:07;;;;;;;5.40;1.98;;;10.70;98.50;;;;;;6271757;28;20059;-77
2021/05/25 08:51:09;;;;;;;3.20;1.33;;;11.30;98.00;;;;;;6281005;28;20049;-76
2021/05/25 08:54:11;;;;;;;4.10;1.17;;;12.10;94.40;;;;;;6275418;28;20056;-76
2021/05/25 08:57:13;;;;;;;3.15;1.65;;;12.80;91.50;;;;;;6271804;28;20049;-76
2021/05/25 09:00:16;;;;;;;4.78;1.20;;;13.10;89.70;;;;;;6271241;28;20481;-76
2021/05/25 09:03:18;;;;;;;1.15;1.00;;;13.30;85.00;;;;;;6277453;28;20053;-77
2021/05/25 09:06:36;;;;;;;2.20;0.90;;;14.00;82.10;;;;;;6261988;28;20052;-79
2021/05/25 09:09:53;;;;;;;0.93;0.77;;;16.10;75.20;;;;;;6259458;28;20506;-80
2021/05/25 09:12:56;;;;;;;4.03;1.02;;;17.90;67.00;;;;;;6259312;28;20045;-79
2021/05/25 09:15:59;;;;;;;2.80;0.90;;;18.90;60.00;;;;;;6255966;28;20050;-79
2021/05/25 09:19:00;;;;;;;1.00;0.90;;;19.50;56.20;;;;;;6253957;28;20140;-75
2021/05/25 09:22:23;;;;;;;2.45;0.68;;;19.30;57.10;;;;;;6251476;28;20133;-76
2021/05/25 09:25:24;;;;;;;2.92;1.30;;;19.50;53.30;;;;;;6250995;28;20424;-75
2021/05/25 09:28:27;;;;;;;2.15;1.00;;;19.90;52.50;;;;;;6251829;28;20124;-75
2021/05/25 09:31:38;;;;;;;1.65;1.00;;;20.30;50.90;;;;;;6251322;28;20128;-74
2021/05/25 09:34:39;;;;;;;1.02;0.65;;;20.50;49.30;;;;;;6251024;28;20147;-76
2021/05/25 09:37:43;;;;;;;8.75;1.77;;;20.50;49.00;;;;;;6251331;28;20079;-78
2021/05/25 09:40:46;;;;;;;2.65;0.65;;;20.90;46.70;;;;;;6251073;28;20045;-75
2021/05/25 09:43:54;;;;;;;1.55;0.88;;;;;;;;;;6251160;28;20060;-75
2021/05/25 09:46:58;;;;;;;;;;;21.00;45.20;;;;;;6250996;28;20132;-75
2021/05/25 09:50:00;;;;;;;1.25;0.80;;;21.00;46.10;;;;;;6250588;28;20433;-75
2021/05/25 09:53:05;;;;;;;1.95;0.90;;;20.90;45.40;;;;;;6250424;28;20175;-77
2021/05/25 09:56:06;;;;;;;3.30;0.70;;;20.70;45.80;;;;;;6250929;28;20053;-75
2021/05/25 09:59:27;;;;;;;3.53;0.90;;;;;;;;;;6250564;28;20053;-75
2021/05/25 10:02:29;;;;;;;3.72;0.77;;;19.80;46.60;;;;;;6250670;28;20053;-77
2021/05/25 10:05:31;;;;;;;2.92;0.63;;;19.40;47.40;;;;;;6250166;28;20041;-76
2021/05/25 10:08:32;;;;;;;3.60;0.73;;;19.30;48.00;;;;;;6251127;28;20041;-77
2021/05/25 10:11:36;;;;;;;2.00;0.60;;;19.30;48.70;;;;;;6261876;28;20587;-78
2021/05/25 10:14:39;;;;;;;5.35;0.60;;;19.50;48.40;;;;;;6274139;28;20069;-78
2021/05/25 10:17:55;;;;;;;1.80;0.60;;;19.60;47.50;;;;;;6276811;28;20052;-75
2021/05/25 10:20:57;;;;;;;2.90;0.90;;;19.20;47.80;;;;;;6274563;28;20479;-77
2021/05/25 10:24:00;;;;;;;1.33;0.55;;;18.90;48.10;;;;;;6274818;28;20076;-76
2021/05/25 10:27:01;;;;;;;2.92;0.65;;;18.80;48.40;;;;;;6275044;28;20414;-77
2021/05/25 10:30:04;;;;;;;2.03;1.00;;;18.70;49.80;;;;;;6274216;28;20053;-75
2021/05/25 10:33:26;;;;;;;3.63;0.73;;;18.50;49.90;;;;;;6274702;28;20400;-74
2021/05/25 10:36:42;;;;;;;5.35;1.50;;;18.40;49.90;;;;;;6274602;28;20136;-77
2021/05/25 10:39:45;;;;;;;2.67;0.93;;;18.60;50.40;;;;;;6274089;28;20414;-77
2021/05/25 10:42:46;;;;;;;3.55;1.05;;;18.70;49.80;;;;;;6274168;28;20095;-75
2021/05/25 10:45:48;;;;;;;2.10;0.77;;;18.40;48.30;;;;;;6273887;28;20043;-75
2021/05/25 10:48:58;;;;;;;4.00;0.90;;;18.10;48.80;;;;;;6273853;28;20056;-74
2021/05/25 10:52:10;;;;;;;3.90;0.95;;;17.80;49.10;;;;;;6273418;28;20057;-74
2021/05/25 10:55:25;;;;;;;4.78;0.90;;;;;;;;;;6274716;28;20056;-73
2021/05/25 10:58:29;;;;;;;4.85;1.25;;;18.10;49.20;;;;;;6273398;28;20052;-75
2021/05/25 11:01:32;;;;;;;4.70;1.40;;;18.10;50.60;;;;;;6273532;28;20498;-74
2021/05/25 11:04:36;;;;;;;4.03;1.00;;;18.30;49.60;;;;;;6273789;28;20045;-74
2021/05/25 11:07:40;;;;;;;1.98;0.90;;;18.20;48.40;;;;;;6273586;28;20127;-74
2021/05/25 11:10:43;;;;;;;5.90;1.00;;;17.70;48.40;;;;;;6273318;28;20044;-74
2021/05/25 11:13:48;;;;;;;6.00;0.90;;;17.30;49.20;;;;;;6266991;28;20399;-74
2021/05/25 11:16:50;;;;;;;0.43;0.43;;;17.20;50.40;;;;;;6249226;28;20093;-74
2021/05/25 11:20:08;;;;;;;3.63;1.00;;;17.30;51.20;;;;;;6248366;28;20476;-74
2021/05/25 11:23:39;;;;;;;3.28;1.10;;;17.20;50.70;;;;;;6248765;28;20498;-74
2021/05/25 11:26:58;;;;;;;2.33;1.27;;;16.40;61.00;;;;;;6248374;28;20136;-74
2021/05/25 11:30:02;;;;;;;6.70;2.05;;;15.40;64.90;;;;;;6248327;28;20120;-74
2021/05/25 11:33:04;;;;;;;3.80;1.63;;;14.80;69.30;;;;;;6248390;28;20046;-74
2021/05/25 11:36:07;;;;;;;7.75;2.83;;;14.20;72.20;;;;;;6248682;28;20450;-75
2021/05/25 11:39:10;;;;;;;2.85;1.42;;;14.00;75.10;;;;;;6248796;28;20067;-76
2021/05/25 11:42:12;;;;;;;2.25;1.38;;;14.10;75.00;;;;;;6248443;28;20120;-74
2021/05/25 11:45:14;;;;;;;4.10;0.98;;;14.20;74.40;;;;;;6248169;28;20081;-74
2021/05/25 11:48:22;;;;;;;4.25;1.15;;;14.40;70.30;;;;;;6248290;28;20145;-74
2021/05/25 11:51:23;;;;;;;;;;;14.60;70.90;;;;;;6248377;28;20052;-76
2021/05/25 11:54:30;;;;;;;5.38;1.70;;;15.10;68.90;;;;;;6247727;28;20028;-73
2021/05/25 11:57:39;;;;;;;1.85;1.00;;;15.50;64.90;;;;;;6247718;28;20681;-74
2021/05/25 12:00:42;;;;;;;3.78;1.17;;;15.90;63.30;;;;;;6247512;28;20153;-75
2021/05/25 12:03:46;;;;;;;2.28;0.93;;;16.50;60.80;;;;;;6248253;28;20136;-74
2021/05/25 12:06:53;;;;;;;2.50;0.80;;;17.00;57.90;;;;;;6247552;28;20056;-74
2021/05/25 12:09:58;;;;;;;4.75;1.33;;;17.40;57.30;;;;;;6249638;28;20069;-74
2021/05/25 12:13:02;;;;;;;2.30;1.15;;;17.60;54.60;;;;;;6270264;28;20053;-74
2021/05/25 12:16:04;;;;;;;1.48;0.70;;;17.50;52.40;;;;;;6255837;28;20046;-74
2021/05/25 12:19:08;;;;;;;7.63;2.60;;;17.30;51.60;;;;;;6247577;28;20144;-74
2021/05/25 12:22:09;;;;;;;1.98;0.80;;;17.20;52.40;;;;;;6247544;28;20136;-74
2021/05/25 12:25:18;;;;;;;1.83;1.08;;;17.50;52.70;;;;;;6247002;28;20128;-74
2021/05/25 12:28:23;;;;;;;1.58;0.93;;;17.60;52.30;;;;;;6247283;28;20124;-74
2021/05/25 12:31:30;;;;;;;5.95;0.88;;;17.60;50.70;;;;;;6247409;28;20053;-74
2021/05/25 12:34:32;;;;;;;2.53;0.95;;;17.60;49.70;;;;;;6247382;28;20080;-74
2021/05/25 12:37:33;;;;;;;2.28;0.60;;;17.70;49.20;;;;;;6246466;28;20079;-74
2021/05/25 12:40:35;;;;;;;9.02;1.42;;;17.70;49.80;;;;;;6247386;28;20077;-75
2021/05/25 12:43:37;;;;;;;3.28;1.85;;;17.90;49.80;;;;;;6247691;28;20478;-75
2021/05/25 12:46:51;;;;;;;1.90;1.05;;;17.90;49.70;;;;;;6247330;28;20090;-75
2021/05/25 12:50:05;;;;;;;3.38;0.80;;;17.80;50.00;;;;;;6246870;28;20510;-75
2021/05/25 12:53:11;;;;;;;1.88;0.90;;;17.40;49.00;;;;;;6247860;28;20041;-75
2021/05/25 12:56:17;;;;;;;11.05;8.85;;;16.90;52.50;;;;;;6248713;28;20041;-75
2021/05/25 12:59:19;;;;;;;4.90;1.80;;;16.20;61.70;;;;;;6248509;28;20053;-74
2021/05/25 13:02:38;;;;;;;4.70;2.05;;;15.10;68.50;;;;;;6249820;28;20137;-75
2021/05/25 13:05:43;;;;;;;4.93;1.23;;;14.10;74.00;;;;;;6249405;28;20586;-75
2021/05/25 13:08:48;;;;;;;3.65;2.38;;;13.90;80.00;;;;;;6254432;28;20042;-75
2021/05/25 13:11:57;;;;;;;4.28;1.35;;;14.00;82.40;;;;;;6247094;28;20090;-75
2021/05/25 13:15:02;;;;;;;5.85;1.67;;;14.10;82.30;;;;;;6263703;28;20132;-75
2021/05/25 13:18:04;;;;;;;2.47;1.35;;;14.30;80.40;;;;;;6270698;28;20045;-75
2021/05/25 13:21:09;;;;;;;2.90;1.92;;;14.30;78.60;;;;;;6271070;28;20049;-75
2021/05/25 13:24:14;;;;;;;1.73;1.20;;;14.40;76.40;;;;;;6271446;28;20056;-75
2021/05/25 13:27:23;;;;;;;2.63;1.08;;;14.70;73.60;;;;;;6271119;28;20140;-75
2021/05/25 13:30:42;;;;;;;8.50;1.15;;;15.00;68.70;;;;;;6270730;28;20041;-75
2021/05/25 13:33:43;;;;;;;3.75;1.15;;;15.40;65.60;;;;;;6271051;28;20507;-75
2021/05/25 13:36:48;;;;;;;2.70;0.75;;;16.00;62.40;;;;;;6271201;28;20045;-75
2021/05/25 13:39:51;;;;;;;3.00;1.23;;;16.40;61.70;;;;;;6271226;28;20110;-75
2021/05/25 13:42:52;;;;;;;2.78;0.90;;;16.60;59.10;;;;;;6270766;28;20056;-75
2021/05/25 13:45:53;;;;;;;2.53;0.77;;;16.80;57.90;;;;;;6270613;28;20045;-75
2021/05/25 13:48:55;;;;;;;6.43;1.08;;;16.90;57.10;;;;;;6274646;28;20130;-74
2021/05/25 13:51:57;;;;;;;9.20;1.73;;;16.90;55.30;;;;;;6275462;28;20080;-75
2021/05/25 13:55:00;;;;;;;0.90;0.68;;;16.60;54.00;;;;;;6275936;28;20076;-75
2021/05/25 13:58:02;;;;;;;3.40;0.75;;;16.40;55.20;;;;;;6275596;28;20044;-75
2021/05/25 14:04:23;;;;;;;1.02;0.73;;;16.70;57.10;;;;;;6275288;28;20037;-75
2021/05/25 14:07:26;;;;;;;2.15;0.70;;;16.80;54.50;;;;;;6275408;28;20471;-75
2021/05/25 14:10:29;;;;;;;3.40;1.23;;;16.80;56.50;;;;;;6274701;28;20048;-75
2021/05/25 14:13:31;;;;;;;1.52;0.60;;;17.00;54.80;;;;;;6274682;28;20055;-75
2021/05/25 14:16:33;;;;;;;1.35;0.65;;;17.00;54.10;;;;;;6270910;28;20410;-76
2021/05/25 14:19:35;;;;;;;2.47;0.75;;;17.10;53.80;;;;;;6274714;28;20410;-74
2021/05/25 14:22:37;;;;;;;30.63;17.48;;;17.20;54.00;;;;;;6274446;28;20120;-74
2021/05/25 14:25:39;;;;;;;42.13;22.80;;;17.40;52.10;;;;;;6274405;28;20052;-75
2021/05/25 14:28:40;;;;;;;8.80;4.32;;;17.60;51.50;;;;;;6274383;28;20081;-74
2021/05/25 14:31:44;;;;;;;21.15;10.23;;;17.80;50.10;;;;;;6274795;28;20568;-74
2021/05/25 14:34:45;;;;;;;40.00;24.75;;;17.70;50.50;;;;;;6274142;28;20126;-75
2021/05/25 14:37:47;;;;;;;5.78;3.55;;;17.60;50.60;;;;;;6274540;28;20056;-74
2021/05/25 14:40:49;;;;;;;31.63;21.05;;;17.60;50.80;;;;;;6274485;28;20072;-74
2021/05/25 14:43:51;;;;;;;44.10;31.42;;;17.50;50.20;;;;;;6274938;28;20109;-75
2021/05/25 14:46:56;;;;;;;16.88;9.38;;;17.40;51.50;;;;;;6274308;28;20068;-77
2021/05/25 14:49:59;;;;;;;4.78;2.28;;;17.40;50.80;;;;;;6274037;28;20126;-75
2021/05/25 14:53:06;;;;;;;3.38;0.77;;;17.50;49.50;;;;;;6274097;28;20048;-75
2021/05/25 14:56:11;;;;;;;9.80;7.85;;;17.80;48.40;;;;;;6274002;28;20453;-76
2021/05/25 14:59:15;;;;;;;2.42;1.70;;;17.60;48.70;;;;;;6273600;28;20068;-75
2021/05/25 15:02:18;;;;;;;1.50;0.60;;;17.50;49.60;;;;;;6274053;28;20595;-76
2021/05/25 15:05:33;;;;;;;1.42;0.82;;;17.30;50.20;;;;;;6274708;28;20048;-76
2021/05/25 15:08:40;;;;;;;2.00;0.90;;;17.10;49.20;;;;;;6274063;28;20040;-75
2021/05/25 15:11:41;;;;;;;2.05;0.80;;;17.20;48.90;;;;;;6274350;28;20052;-76
2021/05/25 15:14:42;;;;;;;2.33;1.05;;;17.20;47.60;;;;;;6273192;28;20124;-76
2021/05/25 15:17:44;;;;;;;5.80;1.17;;;;;;;;;;6272081;28;20072;-75
2021/05/25 15:20:45;;;;;;;4.90;1.10;;;17.10;46.30;;;;;;6273925;28;20128;-75
2021/05/25 15:23:48;;;;;;;3.55;1.23;;;17.00;46.90;;;;;;6273973;28;20091;-76
2021/05/25 15:26:49;;;;;;;1.35;0.70;;;17.10;47.70;;;;;;6273113;28;20111;-76
2021/05/25 15:29:50;;;;;;;1.50;0.80;;;17.10;47.80;;;;;;6273629;28;20128;-75
2021/05/25 15:32:52;;;;;;;2.28;1.20;;;17.20;48.50;;;;;;6272924;28;20565;-76
2021/05/25 15:35:53;;;;;;;1.35;0.90;;;17.30;46.90;;;;;;6273396;28;20103;-76
2021/05/25 15:38:55;;;;;;;4.30;1.20;;;17.20;46.50;;;;;;6272990;28;20049;-75
2021/05/25 15:41:57;;;;;;;4.05;0.70;;;17.10;47.00;;;;;;6273353;28;20060;-74
2021/05/25 15:44:58;;;;;;;2.10;1.13;;;17.10;47.00;;;;;;6273229;28;20075;-76
2021/05/25 15:48:00;;;;;;;2.03;0.70;;;17.20;47.20;;;;;;6272802;28;20055;-76
2021/05/25 15:51:01;;;;;;;2.33;1.02;;;17.30;47.40;;;;;;6273014;28;20519;-76
2021/05/25 15:54:05;;;;;;;2.08;0.95;;;17.30;47.10;;;;;;6272476;28;20052;-76
2021/05/25 15:57:06;;;;;;;8.25;2.17;;;17.30;47.30;;;;;;6273319;28;20131;-76
2021/05/25 16:00:09;;;;;;;5.03;1.30;;;17.40;47.00;;;;;;6272123;28;20457;-76
2021/05/25 16:03:11;;;;;;;2.40;0.75;;;17.60;46.60;;;;;;6273139;28;20051;-76